sensor_id;sensor_type;location;lat;lon;timestamp;temperature;humidity
60701;DHT22;46541;49.894;10.886;2022-07-23T00:00:17;24.20;73.80
60701;DHT22;46541;49.894;10.886;2022-07-23T00:02:44;24.20;74.00
60701;DHT22;46541;49.894;10.886;2022-07-23T00:05:11;24.20;74.40
60701;DHT22;46541;49.894;10.886;2022-07-23T00:07:38;24.10;74.60
60701;DHT22;46541;49.894;10.886;2022-07-23T00:10:05;24.00;74.50
60701;DHT22;46541;49.894;10.886;2022-07-23T00:12:32;24.00;74.80
60701;DHT22;46541;49.894;10.886;2022-07-23T00:14:59;24.00;74.70
60701;DHT22;46541;49.894;10.886;2022-07-23T00:17:26;24.00;74.50
60701;DHT22;46541;49.894;10.886;2022-07-23T00:19:53;23.90;74.50
60701;DHT22;46541;49.894;10.886;2022-07-23T00:22:20;23.90;74.40
60701;DHT22;46541;49.894;10.886;2022-07-23T00:24:47;23.90;74.40
60701;DHT22;46541;49.894;10.886;2022-07-23T00:27:34;23.90;74.60
60701;DHT22;46541;49.894;10.886;2022-07-23T00:30:01;23.90;75.40
60701;DHT22;46541;49.894;10.886;2022-07-23T00:32:27;23.90;74.90
60701;DHT22;46541;49.894;10.886;2022-07-23T00:35:14;23.90;74.80
60701;DHT22;46541;49.894;10.886;2022-07-23T00:37:42;23.90;74.70
60701;DHT22;46541;49.894;10.886;2022-07-23T00:40:09;23.80;74.60
60701;DHT22;46541;49.894;10.886;2022-07-23T00:42:37;23.80;74.80
60701;DHT22;46541;49.894;10.886;2022-07-23T00:45:04;23.80;74.80
60701;DHT22;46541;49.894;10.886;2022-07-23T00:47:31;23.80;75.30
60701;DHT22;46541;49.894;10.886;2022-07-23T00:49:58;23.80;75.10
60701;DHT22;46541;49.894;10.886;2022-07-23T00:52:25;23.80;75.50
60701;DHT22;46541;49.894;10.886;2022-07-23T00:54:52;23.80;76.20
60701;DHT22;46541;49.894;10.886;2022-07-23T00:57:19;23.70;76.60
60701;DHT22;46541;49.894;10.886;2022-07-23T00:59:52;23.70;76.30
60701;DHT22;46541;49.894;10.886;2022-07-23T01:02:19;23.70;76.00
60701;DHT22;46541;49.894;10.886;2022-07-23T01:04:46;23.70;75.80
60701;DHT22;46541;49.894;10.886;2022-07-23T01:07:12;23.70;75.60
60701;DHT22;46541;49.894;10.886;2022-07-23T01:09:40;23.70;75.80
60701;DHT22;46541;49.894;10.886;2022-07-23T01:12:07;23.70;75.90
60701;DHT22;46541;49.894;10.886;2022-07-23T01:14:34;23.70;77.90
60701;DHT22;46541;49.894;10.886;2022-07-23T01:17:01;23.70;78.70
60701;DHT22;46541;49.894;10.886;2022-07-23T01:19:28;23.60;79.20
60701;DHT22;46541;49.894;10.886;2022-07-23T01:21:57;23.50;80.20
60701;DHT22;46541;49.894;10.886;2022-07-23T01:24:24;23.50;80.30
60701;DHT22;46541;49.894;10.886;2022-07-23T01:26:51;23.50;79.40
60701;DHT22;46541;49.894;10.886;2022-07-23T01:29:17;23.50;78.60
60701;DHT22;46541;49.894;10.886;2022-07-23T01:31:45;23.40;78.40
60701;DHT22;46541;49.894;10.886;2022-07-23T01:34:13;23.40;78.40
60701;DHT22;46541;49.894;10.886;2022-07-23T01:36:40;23.40;78.80
60701;DHT22;46541;49.894;10.886;2022-07-23T01:39:07;23.40;78.70
60701;DHT22;46541;49.894;10.886;2022-07-23T01:41:34;23.40;79.10
60701;DHT22;46541;49.894;10.886;2022-07-23T01:44:01;23.30;79.40
60701;DHT22;46541;49.894;10.886;2022-07-23T01:46:28;23.20;79.30
60701;DHT22;46541;49.894;10.886;2022-07-23T01:48:55;23.20;79.40
60701;DHT22;46541;49.894;10.886;2022-07-23T01:51:22;23.20;79.40
60701;DHT22;46541;49.894;10.886;2022-07-23T01:53:49;23.30;79.60
60701;DHT22;46541;49.894;10.886;2022-07-23T01:56:15;23.30;79.50
60701;DHT22;46541;49.894;10.886;2022-07-23T01:58:42;23.30;79.60
60701;DHT22;46541;49.894;10.886;2022-07-23T02:01:09;23.30;79.20
60701;DHT22;46541;49.894;10.886;2022-07-23T02:03:36;23.30;79.20
60701;DHT22;46541;49.894;10.886;2022-07-23T02:06:03;23.30;79.40
60701;DHT22;46541;49.894;10.886;2022-07-23T02:08:29;23.20;79.80
60701;DHT22;46541;49.894;10.886;2022-07-23T02:10:56;23.20;80.60
60701;DHT22;46541;49.894;10.886;2022-07-23T02:13:23;23.20;81.00
60701;DHT22;46541;49.894;10.886;2022-07-23T02:15:50;23.20;80.90
60701;DHT22;46541;49.894;10.886;2022-07-23T02:18:16;23.20;80.80
60701;DHT22;46541;49.894;10.886;2022-07-23T02:20:43;23.20;80.60
60701;DHT22;46541;49.894;10.886;2022-07-23T02:23:11;23.10;81.00
60701;DHT22;46541;49.894;10.886;2022-07-23T02:25:38;23.10;81.00
60701;DHT22;46541;49.894;10.886;2022-07-23T02:28:05;23.10;81.00
60701;DHT22;46541;49.894;10.886;2022-07-23T02:30:31;23.10;81.90
60701;DHT22;46541;49.894;10.886;2022-07-23T02:32:58;23.10;81.90
60701;DHT22;46541;49.894;10.886;2022-07-23T02:35:25;23.10;82.20
60701;DHT22;46541;49.894;10.886;2022-07-23T02:37:52;23.10;81.90
60701;DHT22;46541;49.894;10.886;2022-07-23T02:40:19;23.10;81.50
60701;DHT22;46541;49.894;10.886;2022-07-23T02:42:46;23.10;81.40
60701;DHT22;46541;49.894;10.886;2022-07-23T02:45:13;23.10;81.60
60701;DHT22;46541;49.894;10.886;2022-07-23T02:47:40;23.10;81.40
60701;DHT22;46541;49.894;10.886;2022-07-23T02:50:07;23.10;81.30
60701;DHT22;46541;49.894;10.886;2022-07-23T02:52:34;23.10;81.50
60701;DHT22;46541;49.894;10.886;2022-07-23T02:55:01;23.10;81.60
60701;DHT22;46541;49.894;10.886;2022-07-23T02:57:27;23.00;81.80
60701;DHT22;46541;49.894;10.886;2022-07-23T02:59:54;23.00;81.90
60701;DHT22;46541;49.894;10.886;2022-07-23T03:02:21;23.00;82.40
60701;DHT22;46541;49.894;10.886;2022-07-23T03:04:48;22.90;83.60
60701;DHT22;46541;49.894;10.886;2022-07-23T03:07:17;22.90;84.80
60701;DHT22;46541;49.894;10.886;2022-07-23T03:09:44;22.90;85.50
60701;DHT22;46541;49.894;10.886;2022-07-23T03:12:10;22.80;86.00
60701;DHT22;46541;49.894;10.886;2022-07-23T03:14:40;22.70;86.20
60701;DHT22;46541;49.894;10.886;2022-07-23T03:17:08;22.70;86.60
60701;DHT22;46541;49.894;10.886;2022-07-23T03:19:35;22.70;86.80
60701;DHT22;46541;49.894;10.886;2022-07-23T03:22:01;22.60;87.40
60701;DHT22;46541;49.894;10.886;2022-07-23T03:24:28;22.50;87.00
60701;DHT22;46541;49.894;10.886;2022-07-23T03:27:21;22.50;87.40
60701;DHT22;46541;49.894;10.886;2022-07-23T03:29:49;22.30;88.00
60701;DHT22;46541;49.894;10.886;2022-07-23T03:32:16;22.30;87.40
60701;DHT22;46541;49.894;10.886;2022-07-23T03:34:43;22.20;87.50
60701;DHT22;46541;49.894;10.886;2022-07-23T03:37:10;22.20;87.00
60701;DHT22;46541;49.894;10.886;2022-07-23T03:39:37;22.10;87.40
60701;DHT22;46541;49.894;10.886;2022-07-23T03:42:04;22.00;88.20
60701;DHT22;46541;49.894;10.886;2022-07-23T03:44:31;21.90;88.80
60701;DHT22;46541;49.894;10.886;2022-07-23T03:46:58;21.90;89.20
60701;DHT22;46541;49.894;10.886;2022-07-23T03:49:25;21.80;89.60
60701;DHT22;46541;49.894;10.886;2022-07-23T03:51:52;21.80;90.00
60701;DHT22;46541;49.894;10.886;2022-07-23T03:54:19;21.70;89.90
60701;DHT22;46541;49.894;10.886;2022-07-23T03:56:45;21.80;89.50
60701;DHT22;46541;49.894;10.886;2022-07-23T03:59:12;21.80;89.50
60701;DHT22;46541;49.894;10.886;2022-07-23T04:01:39;21.80;88.40
60701;DHT22;46541;49.894;10.886;2022-07-23T04:04:06;21.80;88.00
60701;DHT22;46541;49.894;10.886;2022-07-23T04:06:35;21.80;87.80
60701;DHT22;46541;49.894;10.886;2022-07-23T04:09:03;21.90;87.70
60701;DHT22;46541;49.894;10.886;2022-07-23T04:11:31;21.90;88.10
60701;DHT22;46541;49.894;10.886;2022-07-23T04:13:57;22.00;87.90
60701;DHT22;46541;49.894;10.886;2022-07-23T04:16:24;22.00;88.20
60701;DHT22;46541;49.894;10.886;2022-07-23T04:18:51;22.00;88.00
60701;DHT22;46541;49.894;10.886;2022-07-23T04:21:18;22.00;87.90
60701;DHT22;46541;49.894;10.886;2022-07-23T04:23:45;22.10;87.70
60701;DHT22;46541;49.894;10.886;2022-07-23T04:26:11;22.10;87.60
60701;DHT22;46541;49.894;10.886;2022-07-23T04:28:43;22.10;87.40
60701;DHT22;46541;49.894;10.886;2022-07-23T04:31:10;22.00;87.40
60701;DHT22;46541;49.894;10.886;2022-07-23T04:33:37;22.00;87.80
60701;DHT22;46541;49.894;10.886;2022-07-23T04:36:04;22.00;88.00
60701;DHT22;46541;49.894;10.886;2022-07-23T04:38:31;22.00;88.20
60701;DHT22;46541;49.894;10.886;2022-07-23T04:40:59;22.00;88.30
60701;DHT22;46541;49.894;10.886;2022-07-23T04:43:26;21.90;88.60
60701;DHT22;46541;49.894;10.886;2022-07-23T04:45:53;21.90;88.80
60701;DHT22;46541;49.894;10.886;2022-07-23T04:48:21;21.90;88.50
60701;DHT22;46541;49.894;10.886;2022-07-23T04:50:48;21.90;87.40
60701;DHT22;46541;49.894;10.886;2022-07-23T04:53:15;21.90;88.70
60701;DHT22;46541;49.894;10.886;2022-07-23T04:55:42;22.00;88.40
60701;DHT22;46541;49.894;10.886;2022-07-23T04:58:09;21.90;88.60
60701;DHT22;46541;49.894;10.886;2022-07-23T05:00:35;21.90;88.30
60701;DHT22;46541;49.894;10.886;2022-07-23T05:03:02;22.00;88.70
60701;DHT22;46541;49.894;10.886;2022-07-23T05:05:29;22.00;88.80
60701;DHT22;46541;49.894;10.886;2022-07-23T05:07:56;22.00;88.90
60701;DHT22;46541;49.894;10.886;2022-07-23T05:10:23;22.00;89.00
60701;DHT22;46541;49.894;10.886;2022-07-23T05:12:52;22.10;88.80
60701;DHT22;46541;49.894;10.886;2022-07-23T05:15:19;22.20;88.10
60701;DHT22;46541;49.894;10.886;2022-07-23T05:17:46;22.20;88.20
60701;DHT22;46541;49.894;10.886;2022-07-23T05:20:14;22.30;88.30
60701;DHT22;46541;49.894;10.886;2022-07-23T05:22:41;22.40;87.70
60701;DHT22;46541;49.894;10.886;2022-07-23T05:25:08;22.60;87.40
60701;DHT22;46541;49.894;10.886;2022-07-23T05:27:35;22.80;87.00
60701;DHT22;46541;49.894;10.886;2022-07-23T05:30:02;23.00;86.80
60701;DHT22;46541;49.894;10.886;2022-07-23T05:32:31;23.10;86.20
60701;DHT22;46541;49.894;10.886;2022-07-23T05:34:58;23.20;86.00
60701;DHT22;46541;49.894;10.886;2022-07-23T05:37:25;23.30;85.90
60701;DHT22;46541;49.894;10.886;2022-07-23T05:39:52;23.40;86.30
60701;DHT22;46541;49.894;10.886;2022-07-23T05:42:19;23.40;86.70
60701;DHT22;46541;49.894;10.886;2022-07-23T05:44:45;23.50;86.30
60701;DHT22;46541;49.894;10.886;2022-07-23T05:47:12;23.50;86.30
60701;DHT22;46541;49.894;10.886;2022-07-23T05:49:39;23.40;86.70
60701;DHT22;46541;49.894;10.886;2022-07-23T05:52:06;23.40;87.10
60701;DHT22;46541;49.894;10.886;2022-07-23T05:54:36;23.40;87.20
60701;DHT22;46541;49.894;10.886;2022-07-23T05:57:04;23.50;87.10
60701;DHT22;46541;49.894;10.886;2022-07-23T05:59:31;23.60;86.90
60701;DHT22;46541;49.894;10.886;2022-07-23T06:01:58;23.80;86.40
60701;DHT22;46541;49.894;10.886;2022-07-23T06:04:25;24.00;85.70
60701;DHT22;46541;49.894;10.886;2022-07-23T06:06:52;24.10;85.40
60701;DHT22;46541;49.894;10.886;2022-07-23T06:09:18;24.00;85.40
60701;DHT22;46541;49.894;10.886;2022-07-23T06:11:45;24.20;85.00
60701;DHT22;46541;49.894;10.886;2022-07-23T06:14:12;24.40;84.50
60701;DHT22;46541;49.894;10.886;2022-07-23T06:16:39;24.60;84.00
60701;DHT22;46541;49.894;10.886;2022-07-23T06:19:06;24.70;83.40
60701;DHT22;46541;49.894;10.886;2022-07-23T06:21:32;24.60;83.40
60701;DHT22;46541;49.894;10.886;2022-07-23T06:24:15;24.70;83.00
60701;DHT22;46541;49.894;10.886;2022-07-23T06:26:41;24.70;82.20
60701;DHT22;46541;49.894;10.886;2022-07-23T06:29:08;24.70;82.20
60701;DHT22;46541;49.894;10.886;2022-07-23T06:31:35;24.80;81.80
60701;DHT22;46541;49.894;10.886;2022-07-23T06:34:02;24.90;81.70
60701;DHT22;46541;49.894;10.886;2022-07-23T06:36:29;25.00;81.00
60701;DHT22;46541;49.894;10.886;2022-07-23T06:38:56;25.10;80.70
60701;DHT22;46541;49.894;10.886;2022-07-23T06:41:23;25.20;80.40
60701;DHT22;46541;49.894;10.886;2022-07-23T06:43:50;25.30;80.60
60701;DHT22;46541;49.894;10.886;2022-07-23T06:46:17;25.50;80.30
60701;DHT22;46541;49.894;10.886;2022-07-23T06:48:44;25.70;78.90
60701;DHT22;46541;49.894;10.886;2022-07-23T06:51:11;26.00;78.30
60701;DHT22;46541;49.894;10.886;2022-07-23T06:53:38;26.20;77.50
60701;DHT22;46541;49.894;10.886;2022-07-23T06:56:04;26.20;77.50
60701;DHT22;46541;49.894;10.886;2022-07-23T06:58:31;26.10;77.70
60701;DHT22;46541;49.894;10.886;2022-07-23T07:00:58;26.00;78.00
60701;DHT22;46541;49.894;10.886;2022-07-23T07:03:25;25.90;78.00
60701;DHT22;46541;49.894;10.886;2022-07-23T07:05:52;25.90;78.40
60701;DHT22;46541;49.894;10.886;2022-07-23T07:08:19;25.80;78.30
60701;DHT22;46541;49.894;10.886;2022-07-23T07:10:46;25.80;78.40
60701;DHT22;46541;49.894;10.886;2022-07-23T07:13:13;25.60;79.20
60701;DHT22;46541;49.894;10.886;2022-07-23T07:15:40;25.40;80.60
60701;DHT22;46541;49.894;10.886;2022-07-23T07:18:07;25.40;82.00
60701;DHT22;46541;49.894;10.886;2022-07-23T07:20:34;25.40;81.80
60701;DHT22;46541;49.894;10.886;2022-07-23T07:23:00;25.30;82.80
60701;DHT22;46541;49.894;10.886;2022-07-23T07:25:27;25.20;83.20
60701;DHT22;46541;49.894;10.886;2022-07-23T07:27:54;25.30;84.40
60701;DHT22;46541;49.894;10.886;2022-07-23T07:30:21;25.30;83.90
60701;DHT22;46541;49.894;10.886;2022-07-23T07:32:48;25.00;84.20
60701;DHT22;46541;49.894;10.886;2022-07-23T07:35:24;25.10;84.50
60701;DHT22;46541;49.894;10.886;2022-07-23T07:37:51;25.20;83.00
60701;DHT22;46541;49.894;10.886;2022-07-23T07:40:18;25.00;82.60
60701;DHT22;46541;49.894;10.886;2022-07-23T07:42:50;25.00;82.60
60701;DHT22;46541;49.894;10.886;2022-07-23T07:45:20;25.00;83.10
60701;DHT22;46541;49.894;10.886;2022-07-23T07:47:47;25.20;82.40
60701;DHT22;46541;49.894;10.886;2022-07-23T07:50:14;25.30;82.70
60701;DHT22;46541;49.894;10.886;2022-07-23T07:52:41;25.40;81.90
60701;DHT22;46541;49.894;10.886;2022-07-23T07:55:09;25.60;81.40
60701;DHT22;46541;49.894;10.886;2022-07-23T07:57:36;25.90;80.90
60701;DHT22;46541;49.894;10.886;2022-07-23T08:00:08;26.20;80.60
60701;DHT22;46541;49.894;10.886;2022-07-23T08:02:47;26.30;80.60
60701;DHT22;46541;49.894;10.886;2022-07-23T08:05:22;26.30;80.80
60701;DHT22;46541;49.894;10.886;2022-07-23T08:07:53;26.20;80.70
60701;DHT22;46541;49.894;10.886;2022-07-23T08:10:20;25.90;80.60
60701;DHT22;46541;49.894;10.886;2022-07-23T08:12:52;25.70;81.20
60701;DHT22;46541;49.894;10.886;2022-07-23T08:15:21;25.50;81.90
60701;DHT22;46541;49.894;10.886;2022-07-23T08:17:48;25.30;83.80
60701;DHT22;46541;49.894;10.886;2022-07-23T08:20:17;25.20;86.50
60701;DHT22;46541;49.894;10.886;2022-07-23T08:23:04;25.20;90.40
60701;DHT22;46541;49.894;10.886;2022-07-23T08:25:37;25.20;90.40
60701;DHT22;46541;49.894;10.886;2022-07-23T08:28:06;25.20;91.40
60701;DHT22;46541;49.894;10.886;2022-07-23T08:30:34;25.20;91.40
60701;DHT22;46541;49.894;10.886;2022-07-23T08:33:04;25.20;91.70
60701;DHT22;46541;49.894;10.886;2022-07-23T08:35:35;25.20;91.50
60701;DHT22;46541;49.894;10.886;2022-07-23T08:38:04;25.10;91.40
60701;DHT22;46541;49.894;10.886;2022-07-23T08:40:35;25.00;91.10
60701;DHT22;46541;49.894;10.886;2022-07-23T08:43:14;25.00;90.70
60701;DHT22;46541;49.894;10.886;2022-07-23T08:45:43;25.30;90.50
60701;DHT22;46541;49.894;10.886;2022-07-23T08:48:21;25.30;90.70
60701;DHT22;46541;49.894;10.886;2022-07-23T08:50:51;25.50;90.50
60701;DHT22;46541;49.894;10.886;2022-07-23T08:53:20;25.70;88.40
60701;DHT22;46541;49.894;10.886;2022-07-23T08:55:48;25.60;87.90
60701;DHT22;46541;49.894;10.886;2022-07-23T08:58:17;25.60;87.30
60701;DHT22;46541;49.894;10.886;2022-07-23T09:00:47;25.70;88.90
60701;DHT22;46541;49.894;10.886;2022-07-23T09:03:20;25.90;86.90
60701;DHT22;46541;49.894;10.886;2022-07-23T09:05:48;26.20;85.80
60701;DHT22;46541;49.894;10.886;2022-07-23T09:10:51;26.60;84.90
60701;DHT22;46541;49.894;10.886;2022-07-23T09:13:40;26.70;84.10
60701;DHT22;46541;49.894;10.886;2022-07-23T09:16:16;26.70;84.10
60701;DHT22;46541;49.894;10.886;2022-07-23T09:18:47;26.90;83.50
60701;DHT22;46541;49.894;10.886;2022-07-23T09:24:07;27.00;82.50
60701;DHT22;46541;49.894;10.886;2022-07-23T09:29:13;27.20;80.90
60701;DHT22;46541;49.894;10.886;2022-07-23T09:31:57;27.70;81.80
60701;DHT22;46541;49.894;10.886;2022-07-23T09:34:25;28.00;81.20
60701;DHT22;46541;49.894;10.886;2022-07-23T09:36:58;27.80;80.70
60701;DHT22;46541;49.894;10.886;2022-07-23T09:39:33;27.80;79.60
60701;DHT22;46541;49.894;10.886;2022-07-23T09:42:23;27.50;80.70
60701;DHT22;46541;49.894;10.886;2022-07-23T09:44:56;27.30;81.30
60701;DHT22;46541;49.894;10.886;2022-07-23T09:47:26;27.10;81.90
60701;DHT22;46541;49.894;10.886;2022-07-23T09:50:09;27.40;82.40
60701;DHT22;46541;49.894;10.886;2022-07-23T09:52:48;27.60;81.10
60701;DHT22;46541;49.894;10.886;2022-07-23T09:55:17;28.00;80.10
60701;DHT22;46541;49.894;10.886;2022-07-23T09:57:45;28.40;78.70
60701;DHT22;46541;49.894;10.886;2022-07-23T10:00:12;28.80;78.50
60701;DHT22;46541;49.894;10.886;2022-07-23T10:02:40;29.40;77.50
60701;DHT22;46541;49.894;10.886;2022-07-23T10:05:07;29.60;76.40
60701;DHT22;46541;49.894;10.886;2022-07-23T10:07:37;29.70;74.70
60701;DHT22;46541;49.894;10.886;2022-07-23T10:10:06;29.80;73.90
60701;DHT22;46541;49.894;10.886;2022-07-23T10:12:33;29.60;75.40
60701;DHT22;46541;49.894;10.886;2022-07-23T10:15:06;29.20;75.60
60701;DHT22;46541;49.894;10.886;2022-07-23T10:17:34;29.20;75.10
60701;DHT22;46541;49.894;10.886;2022-07-23T10:20:01;29.30;75.10
60701;DHT22;46541;49.894;10.886;2022-07-23T10:22:31;29.30;74.00
60701;DHT22;46541;49.894;10.886;2022-07-23T10:25:03;29.60;74.70
60701;DHT22;46541;49.894;10.886;2022-07-23T10:36:19;29.60;72.10
60701;DHT22;46541;49.894;10.886;2022-07-23T10:38:54;29.50;71.00
60701;DHT22;46541;49.894;10.886;2022-07-23T10:47:03;30.10;69.00
60701;DHT22;46541;49.894;10.886;2022-07-23T10:49:32;30.10;70.10
60701;DHT22;46541;49.894;10.886;2022-07-23T10:54:46;29.90;70.80
60701;DHT22;46541;49.894;10.886;2022-07-23T10:57:14;30.00;70.60
60701;DHT22;46541;49.894;10.886;2022-07-23T11:02:36;30.30;70.10
60701;DHT22;46541;49.894;10.886;2022-07-23T11:05:04;30.10;69.80
60701;DHT22;46541;49.894;10.886;2022-07-23T11:07:31;29.90;70.20
60701;DHT22;46541;49.894;10.886;2022-07-23T11:09:58;29.80;71.90
60701;DHT22;46541;49.894;10.886;2022-07-23T11:17:28;30.00;69.60
60701;DHT22;46541;49.894;10.886;2022-07-23T11:27:42;29.70;68.40
60701;DHT22;46541;49.894;10.886;2022-07-23T11:30:11;29.80;67.70
60701;DHT22;46541;49.894;10.886;2022-07-23T11:36:04;30.20;68.40
60701;DHT22;46541;49.894;10.886;2022-07-23T11:38:31;30.10;68.80
60701;DHT22;46541;49.894;10.886;2022-07-23T11:40:58;30.00;68.90
60701;DHT22;46541;49.894;10.886;2022-07-23T11:43:26;29.90;69.40
60701;DHT22;46541;49.894;10.886;2022-07-23T11:45:56;29.80;69.80
60701;DHT22;46541;49.894;10.886;2022-07-23T11:48:27;29.70;68.80
60701;DHT22;46541;49.894;10.886;2022-07-23T11:50:55;29.80;69.10
60701;DHT22;46541;49.894;10.886;2022-07-23T11:53:33;29.60;68.80
60701;DHT22;46541;49.894;10.886;2022-07-23T11:56:08;29.50;68.60
60701;DHT22;46541;49.894;10.886;2022-07-23T11:58:35;29.30;68.90
60701;DHT22;46541;49.894;10.886;2022-07-23T12:01:03;29.10;69.30
60701;DHT22;46541;49.894;10.886;2022-07-23T12:03:30;29.10;69.70
60701;DHT22;46541;49.894;10.886;2022-07-23T12:05:59;29.10;69.40
60701;DHT22;46541;49.894;10.886;2022-07-23T12:08:26;29.20;69.00
60701;DHT22;46541;49.894;10.886;2022-07-23T12:10:53;29.40;69.00
60701;DHT22;46541;49.894;10.886;2022-07-23T12:13:21;29.50;68.00
60701;DHT22;46541;49.894;10.886;2022-07-23T12:15:51;29.50;67.30
60701;DHT22;46541;49.894;10.886;2022-07-23T12:18:23;29.50;68.00
60701;DHT22;46541;49.894;10.886;2022-07-23T12:20:56;29.50;67.40
60701;DHT22;46541;49.894;10.886;2022-07-23T12:23:26;29.90;67.50
60701;DHT22;46541;49.894;10.886;2022-07-23T12:25:54;30.20;66.80
60701;DHT22;46541;49.894;10.886;2022-07-23T12:28:28;30.10;65.80
60701;DHT22;46541;49.894;10.886;2022-07-23T12:30:57;30.20;66.50
60701;DHT22;46541;49.894;10.886;2022-07-23T12:33:27;30.60;66.10
60701;DHT22;46541;49.894;10.886;2022-07-23T12:35:58;30.60;65.30
60701;DHT22;46541;49.894;10.886;2022-07-23T12:38:28;30.50;65.10
60701;DHT22;46541;49.894;10.886;2022-07-23T12:41:02;30.40;65.80
60701;DHT22;46541;49.894;10.886;2022-07-23T12:43:31;30.40;65.00
60701;DHT22;46541;49.894;10.886;2022-07-23T12:46:11;30.60;65.10
60701;DHT22;46541;49.894;10.886;2022-07-23T12:51:24;30.80;63.40
60701;DHT22;46541;49.894;10.886;2022-07-23T12:53:53;30.90;63.50
60701;DHT22;46541;49.894;10.886;2022-07-23T12:56:28;30.90;62.50
60701;DHT22;46541;49.894;10.886;2022-07-23T13:01:36;30.80;63.10
60701;DHT22;46541;49.894;10.886;2022-07-23T13:06:42;30.80;63.00
60701;DHT22;46541;49.894;10.886;2022-07-23T13:09:12;30.80;61.90
60701;DHT22;46541;49.894;10.886;2022-07-23T13:11:42;30.70;61.70
60701;DHT22;46541;49.894;10.886;2022-07-23T13:14:09;30.90;61.40
60701;DHT22;46541;49.894;10.886;2022-07-23T13:16:38;31.10;61.10
60701;DHT22;46541;49.894;10.886;2022-07-23T13:19:06;31.10;60.10
60701;DHT22;46541;49.894;10.886;2022-07-23T13:21:37;30.90;60.50
60701;DHT22;46541;49.894;10.886;2022-07-23T13:24:04;30.80;60.60
60701;DHT22;46541;49.894;10.886;2022-07-23T13:26:35;30.70;59.90
60701;DHT22;46541;49.894;10.886;2022-07-23T13:29:04;30.90;59.30
60701;DHT22;46541;49.894;10.886;2022-07-23T13:31:51;31.10;59.40
60701;DHT22;46541;49.894;10.886;2022-07-23T13:34:18;31.00;59.60
60701;DHT22;46541;49.894;10.886;2022-07-23T13:36:46;30.90;59.80
60701;DHT22;46541;49.894;10.886;2022-07-23T13:39:12;30.80;59.90
60701;DHT22;46541;49.894;10.886;2022-07-23T13:41:39;30.90;60.30
60701;DHT22;46541;49.894;10.886;2022-07-23T13:44:15;30.90;60.40
60701;DHT22;46541;49.894;10.886;2022-07-23T13:46:41;30.80;60.30
60701;DHT22;46541;49.894;10.886;2022-07-23T13:49:08;30.90;60.40
60701;DHT22;46541;49.894;10.886;2022-07-23T13:51:36;31.00;59.90
60701;DHT22;46541;49.894;10.886;2022-07-23T13:54:03;31.30;59.80
60701;DHT22;46541;49.894;10.886;2022-07-23T13:56:34;31.50;59.50
60701;DHT22;46541;49.894;10.886;2022-07-23T13:59:02;31.80;58.30
60701;DHT22;46541;49.894;10.886;2022-07-23T14:01:32;32.00;58.00
60701;DHT22;46541;49.894;10.886;2022-07-23T14:04:16;32.00;57.70
60701;DHT22;46541;49.894;10.886;2022-07-23T14:06:44;31.60;57.30
60701;DHT22;46541;49.894;10.886;2022-07-23T14:09:18;31.40;57.10
60701;DHT22;46541;49.894;10.886;2022-07-23T14:11:45;31.10;57.30
60701;DHT22;46541;49.894;10.886;2022-07-23T14:14:11;31.00;57.50
60701;DHT22;46541;49.894;10.886;2022-07-23T14:16:40;30.80;58.20
60701;DHT22;46541;49.894;10.886;2022-07-23T14:19:08;30.70;58.00
60701;DHT22;46541;49.894;10.886;2022-07-23T14:21:34;30.60;58.30
60701;DHT22;46541;49.894;10.886;2022-07-23T14:24:01;30.50;58.30
60701;DHT22;46541;49.894;10.886;2022-07-23T14:26:28;30.50;58.70
60701;DHT22;46541;49.894;10.886;2022-07-23T14:28:55;30.40;59.20
60701;DHT22;46541;49.894;10.886;2022-07-23T14:31:23;30.20;59.50
60701;DHT22;46541;49.894;10.886;2022-07-23T14:33:51;30.20;59.30
60701;DHT22;46541;49.894;10.886;2022-07-23T14:36:19;30.30;59.50
60701;DHT22;46541;49.894;10.886;2022-07-23T14:38:46;30.40;58.90
60701;DHT22;46541;49.894;10.886;2022-07-23T14:41:13;30.40;58.70
60701;DHT22;46541;49.894;10.886;2022-07-23T14:43:41;30.40;58.80
60701;DHT22;46541;49.894;10.886;2022-07-23T14:46:11;30.40;58.40
60701;DHT22;46541;49.894;10.886;2022-07-23T14:48:38;30.60;58.70
60701;DHT22;46541;49.894;10.886;2022-07-23T14:51:05;30.60;59.10
60701;DHT22;46541;49.894;10.886;2022-07-23T14:53:32;30.60;58.30
60701;DHT22;46541;49.894;10.886;2022-07-23T14:55:58;30.50;58.80
60701;DHT22;46541;49.894;10.886;2022-07-23T14:58:26;30.40;58.60
60701;DHT22;46541;49.894;10.886;2022-07-23T15:00:52;30.40;58.80
60701;DHT22;46541;49.894;10.886;2022-07-23T15:03:21;30.30;58.30
60701;DHT22;46541;49.894;10.886;2022-07-23T15:05:48;30.40;58.30
60701;DHT22;46541;49.894;10.886;2022-07-23T15:08:14;30.40;58.20
60701;DHT22;46541;49.894;10.886;2022-07-23T15:10:48;30.40;58.50
60701;DHT22;46541;49.894;10.886;2022-07-23T15:13:15;30.20;58.00
60701;DHT22;46541;49.894;10.886;2022-07-23T15:15:42;30.20;58.10
60701;DHT22;46541;49.894;10.886;2022-07-23T15:18:11;30.30;58.20
60701;DHT22;46541;49.894;10.886;2022-07-23T15:20:43;30.30;58.20
60701;DHT22;46541;49.894;10.886;2022-07-23T15:23:10;30.30;58.30
60701;DHT22;46541;49.894;10.886;2022-07-23T15:25:37;30.20;58.10
60701;DHT22;46541;49.894;10.886;2022-07-23T15:28:05;29.90;58.00
60701;DHT22;46541;49.894;10.886;2022-07-23T15:30:34;29.90;58.40
60701;DHT22;46541;49.894;10.886;2022-07-23T15:33:04;30.00;58.40
60701;DHT22;46541;49.894;10.886;2022-07-23T15:35:32;29.80;58.30
60701;DHT22;46541;49.894;10.886;2022-07-23T15:37:59;29.90;58.30
60701;DHT22;46541;49.894;10.886;2022-07-23T15:40:32;29.80;58.70
60701;DHT22;46541;49.894;10.886;2022-07-23T15:43:00;29.50;58.70
60701;DHT22;46541;49.894;10.886;2022-07-23T15:45:27;29.30;58.90
60701;DHT22;46541;49.894;10.886;2022-07-23T15:47:54;29.30;59.20
60701;DHT22;46541;49.894;10.886;2022-07-23T15:50:21;29.40;59.00
60701;DHT22;46541;49.894;10.886;2022-07-23T15:52:48;29.30;59.00
60701;DHT22;46541;49.894;10.886;2022-07-23T15:55:15;29.40;59.50
60701;DHT22;46541;49.894;10.886;2022-07-23T15:57:43;29.40;59.00
60701;DHT22;46541;49.894;10.886;2022-07-23T16:00:11;29.30;58.20
60701;DHT22;46541;49.894;10.886;2022-07-23T16:02:38;29.20;57.50
60701;DHT22;46541;49.894;10.886;2022-07-23T16:05:05;29.20;58.00
60701;DHT22;46541;49.894;10.886;2022-07-23T16:07:51;29.20;58.30
60701;DHT22;46541;49.894;10.886;2022-07-23T16:10:18;29.20;58.30
60701;DHT22;46541;49.894;10.886;2022-07-23T16:12:45;29.10;57.70
60701;DHT22;46541;49.894;10.886;2022-07-23T16:15:11;29.20;58.20